Time;durP1;ratioP1;P1;durP2;ratioP2;P2;SDS_P1;SDS_P2;PMS_P1;PMS_P2;Temp;Humidity;BMP_temperature;BMP_pressure;BME280_temperature;BME280_humidity;BME280_pressure;Samples;Min_cycle;Max_cycle;Signal;HPM_P1;HPM_P2
2024/01/31 00:02:06;;;;;;;16.20;12.13;;;7.00;99.90;;;;;;5053250;28;20205;-85
2024/01/31 00:04:32;;;;;;;16.33;11.73;;;7.00;99.90;;;;;;5055116;28;20173;-82
2024/01/31 00:06:57;;;;;;;15.67;11.77;;;7.00;99.90;;;;;;5055013;28;20182;-82
2024/01/31 00:09:23;;;;;;;17.23;11.43;;;7.00;99.90;;;;;;5053520;28;20173;-83
2024/01/31 00:11:48;;;;;;;15.13;11.50;;;7.00;99.90;;;;;;5052995;28;20197;-85
2024/01/31 00:14:16;;;;;;;17.43;11.30;;;7.00;99.90;;;;;;5054980;28;20175;-82
2024/01/31 00:16:43;;;;;;;17.43;12.33;;;6.90;99.90;;;;;;5054752;28;20691;-82
2024/01/31 00:19:08;;;;;;;14.20;11.13;;;6.90;99.90;;;;;;5054795;28;20183;-82
2024/01/31 00:21:34;;;;;;;16.87;11.90;;;6.90;99.90;;;;;;5052880;28;20566;-82
2024/01/31 00:23:59;;;;;;;17.00;11.87;;;6.90;99.90;;;;;;5054618;28;20176;-82
2024/01/31 00:26:25;;;;;;;15.57;11.33;;;6.90;99.90;;;;;;5054518;28;20272;-82
2024/01/31 00:28:51;;;;;;;17.43;11.90;;;6.90;99.90;;;;;;5054653;28;20204;-83
2024/01/31 00:31:17;;;;;;;15.87;11.47;;;6.90;99.90;;;;;;5052955;28;20248;-82
2024/01/31 00:33:43;;;;;;;17.80;11.10;;;6.80;99.90;;;;;;5053115;28;20189;-82
2024/01/31 00:36:08;;;;;;;13.53;10.97;;;6.80;99.90;;;;;;5053020;28;20174;-82
2024/01/31 00:38:34;;;;;;;16.43;11.07;;;6.90;99.90;;;;;;5053947;28;20185;-83
2024/01/31 00:41:00;;;;;;;14.77;10.73;;;6.80;99.90;;;;;;5052217;28;20180;-82
2024/01/31 00:43:26;;;;;;;14.37;10.93;;;6.80;99.90;;;;;;5052906;28;20859;-82
2024/01/31 00:45:51;;;;;;;15.87;10.80;;;6.80;99.90;;;;;;5054059;28;20253;-82
2024/01/31 00:48:17;;;;;;;16.07;11.03;;;6.90;99.90;;;;;;5052744;28;20253;-82
2024/01/31 00:50:42;;;;;;;15.20;10.80;;;6.80;99.90;;;;;;5053632;28;20176;-83
2024/01/31 00:53:08;;;;;;;15.07;10.23;;;6.80;99.90;;;;;;5052639;28;20307;-82
2024/01/31 00:55:34;;;;;;;15.27;11.03;;;6.70;99.90;;;;;;5054063;28;20166;-83
2024/01/31 00:58:00;;;;;;;15.90;10.53;;;6.80;99.90;;;;;;5052653;28;20180;-82
2024/01/31 01:00:26;;;;;;;14.17;10.03;;;6.70;99.90;;;;;;5053464;28;20172;-83
2024/01/31 01:02:51;;;;;;;15.40;10.87;;;6.70;99.90;;;;;;5053792;28;20734;-82
2024/01/31 01:05:17;;;;;;;13.30;10.13;;;6.70;99.90;;;;;;5053936;28;20187;-82
2024/01/31 01:07:45;;;;;;;16.93;10.87;;;6.70;99.90;;;;;;5052289;28;20238;-82
2024/01/31 01:10:12;;;;;;;15.10;10.90;;;6.60;99.90;;;;;;5053348;28;20169;-83
2024/01/31 01:12:39;;;;;;;13.97;10.93;;;6.70;99.90;;;;;;5053620;28;20209;-84
2024/01/31 01:15:05;;;;;;;15.97;11.47;;;6.70;99.90;;;;;;5053662;28;20203;-85
2024/01/31 01:17:31;;;;;;;14.10;10.70;;;6.70;99.90;;;;;;5053636;28;20650;-83
2024/01/31 01:19:57;;;;;;;15.13;10.50;;;6.70;99.90;;;;;;5051903;28;20183;-82
2024/01/31 01:22:22;;;;;;;16.90;10.80;;;6.70;99.90;;;;;;5051870;28;20285;-82
2024/01/31 01:24:48;;;;;;;18.00;11.03;;;6.70;99.90;;;;;;5053553;28;20198;-82
2024/01/31 01:27:13;;;;;;;14.20;10.30;;;6.70;99.90;;;;;;5051995;28;20184;-83
2024/01/31 01:29:39;;;;;;;14.93;10.87;;;6.70;99.90;;;;;;5053138;28;20247;-83
2024/01/31 01:32:05;;;;;;;14.90;10.47;;;6.70;99.90;;;;;;5052849;28;20191;-82
2024/01/31 01:34:30;;;;;;;14.03;10.70;;;6.70;99.90;;;;;;5053410;28;20170;-83
2024/01/31 01:36:56;;;;;;;13.40;10.27;;;6.70;99.90;;;;;;5052061;28;20184;-82
2024/01/31 01:39:21;;;;;;;13.00;10.00;;;6.70;99.90;;;;;;5052871;28;20653;-83
2024/01/31 01:41:50;;;;;;;12.23;9.80;;;6.70;99.90;;;;;;5052668;28;20203;-82
2024/01/31 01:44:16;;;;;;;10.83;8.67;;;6.70;99.90;;;;;;5053050;28;20221;-83
2024/01/31 01:46:43;;;;;;;12.60;8.63;;;6.80;99.90;;;;;;5053172;28;20604;-83
2024/01/31 01:49:11;;;;;;;12.37;8.30;;;6.80;99.90;;;;;;5052188;28;20215;-82
2024/01/31 01:51:36;;;;;;;11.70;8.63;;;6.90;99.90;;;;;;5052400;28;20171;-82
2024/01/31 01:54:03;;;;;;;13.53;8.97;;;6.90;99.90;;;;;;5051564;28;20199;-82
2024/01/31 01:56:30;;;;;;;10.43;7.70;;;6.80;99.90;;;;;;5053130;28;20262;-83
2024/01/31 01:58:56;;;;;;;11.20;7.40;;;6.80;99.90;;;;;;5052724;28;20181;-82
2024/01/31 02:01:25;;;;;;;10.60;7.30;;;6.90;99.90;;;;;;5050825;28;20185;-83
2024/01/31 02:03:54;;;;;;;10.33;6.70;;;6.90;99.90;;;;;;5051540;28;20175;-79
2024/01/31 02:06:20;;;;;;;8.80;5.40;;;6.90;99.90;;;;;;5052652;28;20187;-84
2024/01/31 02:08:46;;;;;;;8.97;5.93;;;6.90;99.90;;;;;;5051301;28;20242;-83
2024/01/31 02:11:11;;;;;;;6.97;5.83;;;6.90;99.90;;;;;;5052297;28;20169;-82
2024/01/31 02:13:37;;;;;;;9.37;6.10;;;6.80;99.90;;;;;;5052401;28;20247;-83
2024/01/31 02:16:03;;;;;;;6.73;5.87;;;6.80;99.90;;;;;;5051333;28;20180;-82
2024/01/31 02:18:28;;;;;;;10.60;6.30;;;6.80;99.90;;;;;;5051264;28;20204;-82
2024/01/31 02:20:54;;;;;;;8.67;6.10;;;6.80;99.90;;;;;;5051901;28;20175;-85
2024/01/31 02:23:20;;;;;;;7.23;5.30;;;6.70;99.90;;;;;;5063618;28;20209;-82
2024/01/31 02:25:46;;;;;;;6.00;5.03;;;6.70;99.90;;;;;;5072357;28;20176;-82
2024/01/31 02:28:12;;;;;;;5.87;4.60;;;6.70;99.90;;;;;;5071439;28;20213;-83
2024/01/31 02:30:38;;;;;;;7.47;5.00;;;6.70;99.90;;;;;;5072051;28;20221;-82
2024/01/31 02:33:03;;;;;;;6.83;4.37;;;6.80;99.90;;;;;;5072336;28;20196;-82
2024/01/31 02:35:32;;;;;;;5.40;4.60;;;6.80;99.90;;;;;;5072401;28;20627;-82
2024/01/31 02:37:58;;;;;;;7.03;4.67;;;6.80;99.90;;;;;;5071386;28;20189;-82
2024/01/31 02:40:24;;;;;;;6.60;4.87;;;6.70;99.90;;;;;;5070733;28;20712;-83
2024/01/31 02:42:49;;;;;;;7.30;4.80;;;6.70;99.90;;;;;;5072458;28;20203;-82
2024/01/31 02:45:15;;;;;;;6.70;4.73;;;6.60;99.90;;;;;;5072118;28;20181;-84
2024/01/31 02:47:40;;;;;;;5.53;4.73;;;6.60;99.90;;;;;;5070977;28;20239;-82
2024/01/31 02:50:06;;;;;;;6.67;4.57;;;6.50;99.90;;;;;;5071973;28;20178;-82
2024/01/31 02:52:32;;;;;;;6.43;5.10;;;6.50;99.90;;;;;;5071554;28;20292;-83
2024/01/31 02:54:58;;;;;;;6.23;5.13;;;6.40;99.90;;;;;;5070942;28;20264;-83
2024/01/31 02:57:24;;;;;;;6.87;5.00;;;6.40;99.90;;;;;;5070855;28;20173;-83
2024/01/31 02:59:50;;;;;;;6.63;4.60;;;6.30;99.90;;;;;;5071766;28;20328;-82
2024/01/31 03:02:20;;;;;;;8.07;4.50;;;6.30;99.90;;;;;;5074377;28;20288;-82
2024/01/31 03:04:46;;;;;;;8.07;4.87;;;6.30;99.90;;;;;;5076110;28;20180;-84
2024/01/31 03:07:11;;;;;;;7.43;4.97;;;6.20;99.90;;;;;;5076218;28;20175;-82
2024/01/31 03:09:38;;;;;;;6.57;5.07;;;6.20;99.90;;;;;;5074655;28;20266;-82
2024/01/31 03:12:07;;;;;;;5.87;4.93;;;6.10;99.90;;;;;;5074227;28;20278;-85
2024/01/31 03:14:34;;;;;;;7.20;5.20;;;6.10;99.90;;;;;;5074889;28;20225;-82
2024/01/31 03:17:00;;;;;;;7.07;5.53;;;6.00;99.90;;;;;;5076308;28;20253;-83
2024/01/31 03:19:28;;;;;;;6.47;4.97;;;6.00;99.90;;;;;;5075511;28;20198;-83
2024/01/31 03:21:54;;;;;;;7.07;4.80;;;5.90;99.90;;;;;;5075230;28;20192;-82
2024/01/31 03:24:23;;;;;;;6.60;5.30;;;5.80;99.90;;;;;;5074383;28;20184;-82
2024/01/31 03:26:49;;;;;;;7.53;5.23;;;5.70;99.90;;;;;;5074532;28;20187;-82
2024/01/31 03:29:15;;;;;;;6.80;5.03;;;5.70;99.90;;;;;;5075564;28;20209;-82
2024/01/31 03:31:41;;;;;;;7.23;5.27;;;5.60;99.90;;;;;;5075245;28;20193;-82
2024/01/31 03:34:06;;;;;;;7.23;5.10;;;5.60;99.90;;;;;;5074362;28;20176;-84
2024/01/31 03:36:33;;;;;;;9.20;4.77;;;5.60;99.90;;;;;;5075712;28;20170;-82
2024/01/31 03:38:59;;;;;;;8.67;5.10;;;5.60;99.90;;;;;;5075456;28;20677;-82
2024/01/31 03:41:27;;;;;;;7.70;4.63;;;5.60;99.90;;;;;;5075075;28;20177;-82
2024/01/31 03:43:54;;;;;;;6.77;4.40;;;5.70;99.90;;;;;;5074249;28;20577;-82
2024/01/31 03:46:20;;;;;;;7.70;4.60;;;5.70;99.90;;;;;;5074253;28;20208;-82
2024/01/31 03:48:46;;;;;;;5.47;4.10;;;5.70;99.90;;;;;;5073930;28;20208;-82
2024/01/31 03:51:21;;;;;;;7.03;4.50;;;5.70;99.90;;;;;;5073673;28;20303;-82
2024/01/31 03:53:48;;;;;;;6.27;4.73;;;5.60;99.90;;;;;;5074296;28;20209;-84
2024/01/31 03:56:14;;;;;;;5.30;4.77;;;5.60;99.90;;;;;;5074016;28;20244;-82
2024/01/31 03:58:40;;;;;;;5.97;3.87;;;5.50;99.90;;;;;;5075111;28;20182;-82
2024/01/31 04:01:07;;;;;;;6.00;4.20;;;5.60;99.90;;;;;;5074344;28;20182;-82
2024/01/31 04:03:32;;;;;;;5.50;4.23;;;5.50;99.90;;;;;;5073933;28;20250;-82
2024/01/31 04:05:58;;;;;;;6.47;4.07;;;5.40;99.90;;;;;;5075248;28;20205;-82
2024/01/31 04:08:24;;;;;;;6.60;4.40;;;5.50;99.90;;;;;;5073468;28;20204;-82
2024/01/31 04:10:52;;;;;;;5.57;3.87;;;5.50;99.90;;;;;;5073097;28;20192;-83
2024/01/31 04:13:18;;;;;;;5.27;4.57;;;5.50;99.90;;;;;;5073044;28;20280;-83
2024/01/31 04:15:44;;;;;;;6.67;4.60;;;5.50;99.90;;;;;;5074748;28;20176;-82
2024/01/31 04:18:10;;;;;;;6.63;4.27;;;5.50;99.90;;;;;;5075224;28;20204;-83
2024/01/31 04:20:37;;;;;;;7.67;4.30;;;5.60;99.90;;;;;;5074306;28;20266;-83
2024/01/31 04:23:03;;;;;;;6.17;4.00;;;5.60;99.90;;;;;;5074434;28;20192;-82
2024/01/31 04:25:29;;;;;;;6.27;3.70;;;5.60;99.90;;;;;;5073243;28;20218;-82
2024/01/31 04:27:54;;;;;;;5.40;3.57;;;5.70;99.90;;;;;;5073123;28;20189;-82
2024/01/31 04:30:20;;;;;;;4.43;3.60;;;5.60;99.90;;;;;;5072571;28;20177;-82
2024/01/31 04:32:45;;;;;;;6.30;4.00;;;5.60;99.90;;;;;;5073242;28;20185;-82
2024/01/31 04:35:12;;;;;;;5.57;4.07;;;5.50;99.90;;;;;;5074680;28;20574;-82
2024/01/31 04:37:38;;;;;;;5.97;3.83;;;5.50;99.90;;;;;;5074801;28;20302;-82
2024/01/31 04:40:04;;;;;;;6.57;4.00;;;5.40;99.90;;;;;;5072914;28;20264;-82
2024/01/31 04:42:30;;;;;;;4.03;3.30;;;5.30;99.90;;;;;;5073926;28;20602;-83
2024/01/31 04:44:56;;;;;;;4.60;3.43;;;5.30;99.90;;;;;;5072934;28;20173;-82
2024/01/31 04:47:25;;;;;;;5.47;3.87;;;5.20;99.90;;;;;;5074558;28;20172;-82
2024/01/31 04:49:56;;;;;;;5.03;3.90;;;5.10;99.90;;;;;;5074307;28;20174;-83
2024/01/31 04:52:22;;;;;;;4.90;3.47;;;5.20;99.90;;;;;;5074064;28;20759;-82
2024/01/31 04:54:47;;;;;;;5.10;3.60;;;5.00;99.90;;;;;;5072944;28;20260;-82
2024/01/31 04:57:13;;;;;;;5.60;3.67;;;4.90;99.90;;;;;;5072652;28;20306;-82
2024/01/31 04:59:39;;;;;;;6.33;3.90;;;4.80;99.90;;;;;;5073787;28;20166;-83
2024/01/31 05:02:06;;;;;;;5.07;3.70;;;4.70;99.90;;;;;;5073653;28;20215;-82
2024/01/31 05:04:32;;;;;;;4.87;3.80;;;4.80;99.90;;;;;;5074192;28;20245;-82
2024/01/31 05:06:58;;;;;;;5.73;3.60;;;4.80;99.90;;;;;;5073884;28;20270;-82
2024/01/31 05:09:23;;;;;;;5.37;3.40;;;4.90;99.90;;;;;;5072393;28;20216;-82
2024/01/31 05:11:49;;;;;;;6.47;3.70;;;4.90;99.90;;;;;;5073656;28;20203;-82
2024/01/31 05:14:15;;;;;;;4.93;3.37;;;4.70;99.90;;;;;;5072782;28;20176;-82
2024/01/31 05:16:42;;;;;;;5.40;3.00;;;4.70;99.90;;;;;;5072521;28;20271;-82
2024/01/31 05:19:14;;;;;;;4.53;2.90;;;4.70;99.90;;;;;;5073571;28;20172;-82
2024/01/31 05:21:49;;;;;;;5.13;2.93;;;4.70;99.90;;;;;;5073065;28;20752;-82
2024/01/31 05:24:15;;;;;;;4.47;3.03;;;4.80;99.90;;;;;;5073672;28;20178;-82
2024/01/31 05:26:43;;;;;;;4.30;3.17;;;4.80;99.90;;;;;;5072581;28;20185;-82
2024/01/31 05:29:08;;;;;;;4.33;3.63;;;4.80;99.90;;;;;;5058543;28;20244;-82
2024/01/31 05:31:34;;;;;;;4.70;3.30;;;4.80;99.90;;;;;;5051355;28;20215;-82
2024/01/31 05:34:00;;;;;;;3.97;3.17;;;4.80;99.90;;;;;;5052161;28;20181;-82
2024/01/31 05:36:25;;;;;;;4.00;3.40;;;4.80;99.90;;;;;;5052403;28;20215;-82
2024/01/31 05:38:51;;;;;;;5.63;3.67;;;4.80;99.90;;;;;;5052020;28;20219;-82
2024/01/31 05:41:16;;;;;;;5.50;3.20;;;4.80;99.90;;;;;;5051137;28;20181;-83
2024/01/31 05:43:42;;;;;;;5.73;3.50;;;4.80;99.90;;;;;;5052808;28;20206;-82
2024/01/31 05:46:08;;;;;;;4.50;3.10;;;4.80;99.90;;;;;;5051639;28;20181;-82
2024/01/31 05:48:33;;;;;;;5.77;3.80;;;4.90;99.90;;;;;;5051706;28;20233;-82
2024/01/31 05:50:59;;;;;;;6.10;3.80;;;4.90;99.90;;;;;;5051511;28;20177;-82
2024/01/31 05:53:24;;;;;;;6.87;4.20;;;4.90;99.90;;;;;;5052823;28;20208;-83
2024/01/31 05:55:50;;;;;;;7.03;4.73;;;4.90;99.90;;;;;;5052926;28;20191;-82
2024/01/31 05:58:17;;;;;;;6.30;4.67;;;4.90;99.90;;;;;;5052963;28;20181;-82
2024/01/31 06:00:44;;;;;;;7.77;4.90;;;5.00;99.90;;;;;;5052500;28;20194;-82
2024/01/31 06:03:10;;;;;;;7.40;4.40;;;5.00;99.90;;;;;;5051694;28;20220;-82
2024/01/31 06:05:36;;;;;;;7.37;5.03;;;4.90;99.90;;;;;;5053449;28;20180;-82
2024/01/31 06:08:02;;;;;;;6.70;4.90;;;5.00;99.90;;;;;;5052656;28;20201;-82
2024/01/31 06:10:28;;;;;;;8.23;5.33;;;4.90;99.90;;;;;;5050898;28;20181;-82
2024/01/31 06:12:54;;;;;;;6.27;4.67;;;4.90;99.90;;;;;;5052800;28;20192;-82
2024/01/31 06:15:20;;;;;;;7.70;5.30;;;4.90;99.90;;;;;;5051464;28;20386;-82
2024/01/31 06:17:46;;;;;;;8.30;5.20;;;4.90;99.90;;;;;;5052611;28;20287;-79
2024/01/31 06:20:12;;;;;;;9.43;5.33;;;4.90;99.90;;;;;;5052592;28;20207;-82
2024/01/31 06:22:37;;;;;;;8.00;5.10;;;4.90;99.90;;;;;;5052093;28;20248;-82
2024/01/31 06:25:03;;;;;;;9.00;5.97;;;5.00;99.90;;;;;;5051139;28;20181;-83
2024/01/31 06:27:29;;;;;;;9.83;6.20;;;5.00;99.90;;;;;;5052319;28;20187;-82
2024/01/31 06:29:54;;;;;;;10.03;6.70;;;5.00;99.90;;;;;;5052335;28;20202;-82
2024/01/31 06:32:22;;;;;;;8.83;5.90;;;5.00;99.90;;;;;;5052112;28;20200;-81
2024/01/31 06:34:48;;;;;;;9.30;6.17;;;5.10;99.90;;;;;;5052167;28;20173;-82
2024/01/31 06:37:14;;;;;;;9.60;6.97;;;5.10;99.90;;;;;;5050909;28;20658;-81
2024/01/31 06:39:39;;;;;;;9.73;6.57;;;5.10;99.90;;;;;;5050847;28;20191;-81
2024/01/31 06:42:07;;;;;;;8.13;6.23;;;5.10;99.90;;;;;;5050850;28;20200;-80
2024/01/31 06:44:32;;;;;;;9.57;6.70;;;5.10;99.90;;;;;;5052291;28;20172;-81
2024/01/31 06:46:58;;;;;;;8.60;5.27;;;5.20;99.90;;;;;;5050971;28;20172;-80
2024/01/31 06:49:24;;;;;;;7.67;6.00;;;5.20;99.90;;;;;;5052179;28;20215;-81
2024/01/31 06:51:50;;;;;;;8.50;6.33;;;5.20;99.90;;;;;;5051544;28;20213;-82
2024/01/31 06:54:16;;;;;;;11.27;6.10;;;5.10;99.90;;;;;;5052419;28;20268;-81
2024/01/31 06:56:41;;;;;;;7.83;5.90;;;5.10;99.90;;;;;;5052065;28;20207;-81
2024/01/31 06:59:07;;;;;;;7.97;5.70;;;5.10;99.90;;;;;;5050840;28;20181;-81
2024/01/31 07:01:33;;;;;;;7.37;5.30;;;5.10;99.90;;;;;;5050253;28;20203;-82
2024/01/31 07:03:58;;;;;;;8.10;5.60;;;5.10;99.90;;;;;;5050748;28;20276;-81
2024/01/31 07:06:24;;;;;;;7.67;5.30;;;5.00;99.90;;;;;;5050635;28;20170;-81
2024/01/31 07:08:49;;;;;;;5.20;4.07;;;5.00;99.90;;;;;;5052563;28;20208;-81
2024/01/31 07:11:15;;;;;;;7.33;4.47;;;5.20;99.90;;;;;;5050730;28;20170;-80
2024/01/31 07:13:41;;;;;;;6.77;4.80;;;6.00;99.90;;;;;;5052091;28;20197;-82
2024/01/31 07:16:09;;;;;;;7.10;4.93;;;6.60;99.90;;;;;;5052016;28;20216;-81
2024/01/31 07:18:44;;;;;;;9.20;5.47;;;7.10;99.90;;;;;;5050847;28;20668;-82
2024/01/31 07:21:11;;;;;;;7.20;5.10;;;7.40;99.90;;;;;;5051367;28;20185;-82
2024/01/31 07:23:37;;;;;;;8.70;6.00;;;7.40;1.00;;;;;;5050664;28;20235;-82
2024/01/31 07:26:03;;;;;;;9.13;5.53;;;7.30;1.00;;;;;;5052043;28;20210;-82
2024/01/31 07:28:36;;;;;;;8.57;5.80;;;6.80;1.00;;;;;;5051913;28;20228;-83
2024/01/31 07:31:02;;;;;;;8.73;5.80;;;6.30;99.90;;;;;;5051310;28;20253;-83
2024/01/31 07:33:28;;;;;;;7.93;6.03;;;6.00;99.90;;;;;;5050327;28;20195;-83
2024/01/31 07:35:53;;;;;;;7.80;5.83;;;5.80;99.90;;;;;;5052105;28;20173;-82
2024/01/31 07:38:20;;;;;;;9.50;6.37;;;5.60;99.90;;;;;;5050860;28;20563;-83
2024/01/31 07:40:45;;;;;;;8.57;6.30;;;5.40;99.90;;;;;;5049963;28;20181;-82
2024/01/31 07:43:11;;;;;;;7.47;5.80;;;5.40;99.90;;;;;;5050435;28;20197;-84
2024/01/31 07:45:36;;;;;;;9.47;5.43;;;5.40;99.90;;;;;;5059913;28;20230;-84
2024/01/31 07:48:02;;;;;;;8.97;6.00;;;5.40;99.90;;;;;;5073320;28;20241;-83
2024/01/31 07:50:28;;;;;;;9.53;6.30;;;5.40;99.90;;;;;;5075531;28;20169;-84
2024/01/31 07:52:53;;;;;;;9.50;5.87;;;5.30;99.90;;;;;;5075758;28;20208;-84
2024/01/31 07:55:19;;;;;;;8.87;5.70;;;5.30;99.90;;;;;;5075976;28;20169;-85
2024/01/31 07:57:45;;;;;;;11.67;7.60;;;5.30;99.90;;;;;;5076129;28;20584;-85
2024/01/31 08:00:11;;;;;;;8.63;6.47;;;5.30;99.90;;;;;;5076123;28;20255;-85
2024/01/31 08:02:36;;;;;;;8.10;5.77;;;5.40;99.90;;;;;;5074012;28;20279;-84
2024/01/31 08:05:02;;;;;;;6.83;5.00;;;5.40;99.90;;;;;;5074536;28;20630;-84
2024/01/31 08:07:28;;;;;;;7.43;5.23;;;5.40;99.90;;;;;;5074270;28;20734;-86
2024/01/31 08:09:53;;;;;;;6.97;5.33;;;5.50;99.90;;;;;;5074523;28;20163;-83
2024/01/31 08:12:19;;;;;;;7.33;5.80;;;5.40;99.90;;;;;;5073760;28;20572;-82
2024/01/31 08:14:44;;;;;;;9.00;6.50;;;5.40;99.90;;;;;;5075503;28;20251;-83
2024/01/31 08:17:13;;;;;;;7.93;5.87;;;5.40;99.90;;;;;;5075414;28;20189;-79
2024/01/31 08:19:38;;;;;;;9.80;7.20;;;5.30;99.90;;;;;;5073965;28;20181;-84
2024/01/31 08:22:04;;;;;;;10.47;7.40;;;5.30;99.90;;;;;;5075193;28;20197;-80
2024/01/31 08:24:30;;;;;;;8.60;6.10;;;5.30;99.90;;;;;;5074266;28;20179;-81
2024/01/31 08:26:55;;;;;;;9.47;6.30;;;5.40;99.90;;;;;;5074126;28;20180;-84
2024/01/31 08:29:21;;;;;;;8.17;5.57;;;5.50;99.90;;;;;;5074146;28;20207;-84
2024/01/31 08:31:47;;;;;;;8.37;5.50;;;5.50;99.90;;;;;;5072288;28;20204;-83
2024/01/31 08:34:13;;;;;;;8.63;5.47;;;5.50;99.90;;;;;;5074973;28;20180;-82
2024/01/31 08:36:39;;;;;;;6.40;5.23;;;5.60;99.90;;;;;;5073190;28;20651;-81
2024/01/31 08:39:05;;;;;;;8.23;5.60;;;5.60;99.90;;;;;;5073213;28;20184;-83
2024/01/31 08:41:31;;;;;;;7.77;5.37;;;5.60;99.90;;;;;;5070587;28;20189;-82
2024/01/31 08:43:57;;;;;;;7.90;5.63;;;5.60;99.90;;;;;;5053678;28;20230;-82
2024/01/31 08:46:25;;;;;;;7.07;5.17;;;5.60;99.90;;;;;;5053540;28;20177;-81
2024/01/31 08:48:50;;;;;;;6.20;5.27;;;5.60;99.90;;;;;;5062398;28;20204;-81
2024/01/31 08:51:16;;;;;;;6.80;5.30;;;5.60;99.90;;;;;;5067118;28;20173;-81
2024/01/31 08:53:42;;;;;;;6.97;5.23;;;5.70;99.90;;;;;;5074284;28;20197;-82
2024/01/31 08:56:09;;;;;;;7.40;5.33;;;5.70;99.90;;;;;;5074569;28;20222;-80
2024/01/31 08:58:35;;;;;;;6.00;4.77;;;5.80;99.90;;;;;;5072855;28;20233;-82
2024/01/31 09:01:00;;;;;;;7.50;5.60;;;5.80;99.90;;;;;;5070041;28;20239;-82
2024/01/31 09:03:26;;;;;;;7.60;5.63;;;5.80;99.90;;;;;;5070497;28;20766;-82
2024/01/31 09:05:52;;;;;;;6.87;5.37;;;5.80;99.90;;;;;;5070453;28;20173;-82
2024/01/31 09:08:18;;;;;;;8.70;5.40;;;5.80;99.90;;;;;;5071744;28;20574;-82
2024/01/31 09:10:45;;;;;;;7.27;5.37;;;5.90;99.90;;;;;;5069972;28;20176;-83
2024/01/31 09:13:10;;;;;;;7.00;5.20;;;5.90;99.90;;;;;;5071499;28;20192;-82
2024/01/31 09:15:36;;;;;;;8.47;5.33;;;5.80;99.90;;;;;;5072781;28;20181;-83
2024/01/31 09:18:01;;;;;;;8.00;5.63;;;5.80;99.90;;;;;;5073272;28;20172;-82
2024/01/31 09:20:27;;;;;;;7.47;5.67;;;5.90;99.90;;;;;;5071371;28;20199;-82
2024/01/31 09:22:52;;;;;;;5.70;4.60;;;5.90;99.90;;;;;;5073032;28;20193;-82
2024/01/31 09:25:18;;;;;;;6.83;4.43;;;5.90;99.90;;;;;;5073303;28;20238;-83
2024/01/31 09:27:43;;;;;;;7.80;4.63;;;6.00;99.90;;;;;;5071780;28;20584;-82
2024/01/31 09:30:09;;;;;;;6.27;4.63;;;6.00;99.90;;;;;;5071703;28;20571;-83
2024/01/31 09:32:35;;;;;;;6.73;5.30;;;6.00;99.90;;;;;;5072701;28;20671;-82
2024/01/31 09:35:01;;;;;;;5.53;3.77;;;6.00;99.90;;;;;;5073420;28;20183;-83
2024/01/31 09:37:26;;;;;;;5.53;4.33;;;6.00;99.90;;;;;;5073021;28;20647;-82
2024/01/31 09:39:54;;;;;;;8.53;6.40;;;6.00;99.90;;;;;;5071912;28;20287;-82
2024/01/31 09:42:20;;;;;;;9.40;7.03;;;6.00;99.90;;;;;;5072449;28;20246;-82
2024/01/31 09:44:46;;;;;;;7.03;5.30;;;6.00;99.90;;;;;;5071770;28;20173;-83
2024/01/31 09:47:13;;;;;;;7.33;4.60;;;6.10;99.90;;;;;;5071595;28;20192;-82
2024/01/31 09:49:39;;;;;;;6.13;4.60;;;6.10;99.90;;;;;;5072672;28;20545;-83
2024/01/31 09:52:05;;;;;;;5.23;4.00;;;6.10;99.90;;;;;;5072324;28;20690;-83
2024/01/31 09:54:31;;;;;;;6.17;4.33;;;6.10;99.90;;;;;;5072883;28;20169;-82
2024/01/31 09:56:57;;;;;;;7.07;5.27;;;6.10;99.90;;;;;;5072732;28;20226;-83
2024/01/31 09:59:25;;;;;;;7.03;4.50;;;6.10;99.90;;;;;;5071512;28;20176;-82
2024/01/31 10:01:55;;;;;;;6.70;4.70;;;6.20;99.90;;;;;;5070939;28;20690;-82
2024/01/31 10:04:20;;;;;;;6.70;4.73;;;6.20;99.90;;;;;;5071440;28;20254;-82
2024/01/31 10:06:46;;;;;;;6.47;4.93;;;6.30;99.90;;;;;;5072902;28;20211;-82
2024/01/31 10:09:13;;;;;;;7.00;4.67;;;6.30;99.90;;;;;;5072360;28;20205;-82
2024/01/31 10:11:44;;;;;;;7.43;4.63;;;6.30;75.30;;;;;;5071844;28;20637;-83
2024/01/31 10:14:11;;;;;;;6.50;4.47;;;6.30;99.90;;;;;;5072530;28;20255;-82
2024/01/31 10:16:37;;;;;;;6.97;5.20;;;6.30;99.90;;;;;;5072156;28;20173;-83
2024/01/31 10:19:02;;;;;;;7.63;5.33;;;6.30;99.90;;;;;;5072406;28;20615;-82
2024/01/31 10:21:29;;;;;;;6.33;4.80;;;6.40;67.30;;;;;;5071919;28;20247;-83
2024/01/31 10:24:02;;;;;;;6.40;4.60;;;6.40;12.00;;;;;;5071231;28;20169;-82
2024/01/31 10:26:28;;;;;;;9.53;6.73;;;6.40;40.20;;;;;;5071202;28;20184;-82
2024/01/31 10:28:57;;;;;;;8.30;6.97;;;6.40;73.80;;;;;;5070732;28;20200;-83
2024/01/31 10:31:22;;;;;;;8.10;5.53;;;6.50;24.20;;;;;;5070296;28;20180;-82
2024/01/31 10:33:49;;;;;;;6.53;4.70;;;6.50;12.10;;;;;;5072508;28;20173;-82
2024/01/31 10:36:17;;;;;;;5.87;4.30;;;6.40;6.80;;;;;;5072489;28;20173;-82
2024/01/31 10:38:43;;;;;;;7.70;5.23;;;6.50;12.00;;;;;;5070743;28;20562;-83
2024/01/31 10:41:12;;;;;;;5.87;4.63;;;6.50;4.10;;;;;;5070466;28;20335;-83
2024/01/31 10:43:40;;;;;;;5.90;4.20;;;6.50;1.00;;;;;;5070722;28;20205;-82
2024/01/31 10:46:05;;;;;;;4.93;3.70;;;6.50;1.00;;;;;;5072061;28;20606;-82
2024/01/31 10:48:31;;;;;;;4.60;3.77;;;6.60;1.00;;;;;;5072118;28;20295;-82
2024/01/31 10:51:00;;;;;;;7.20;5.00;;;6.60;1.00;;;;;;5070369;28;20525;-82
2024/01/31 10:53:26;;;;;;;5.83;4.40;;;6.60;1.00;;;;;;5072482;28;20220;-82
2024/01/31 10:55:53;;;;;;;4.10;3.53;;;6.70;1.00;;;;;;5071909;28;20188;-83
2024/01/31 10:58:21;;;;;;;5.13;3.60;;;6.70;1.00;;;;;;5071895;28;20181;-83
2024/01/31 11:00:47;;;;;;;4.87;3.00;;;6.70;99.90;;;;;;5071717;28;20201;-83
2024/01/31 11:03:15;;;;;;;3.50;3.20;;;6.60;99.90;;;;;;5072082;28;20222;-82
2024/01/31 11:05:41;;;;;;;4.10;3.50;;;6.70;99.90;;;;;;5071982;28;20222;-82
2024/01/31 11:08:20;;;;;;;3.00;2.63;;;6.70;99.90;;;;;;5071810;28;20201;-82
2024/01/31 11:10:47;;;;;;;4.33;2.40;;;6.60;99.90;;;;;;5071224;28;20191;-83
2024/01/31 11:13:13;;;;;;;4.03;3.63;;;6.60;99.90;;;;;;5071854;28;20224;-82
2024/01/31 11:15:39;;;;;;;6.40;5.80;;;6.60;99.90;;;;;;5071671;28;20197;-82
2024/01/31 11:18:09;;;;;;;5.97;4.70;;;6.60;99.90;;;;;;5070489;28;20208;-83
2024/01/31 11:20:36;;;;;;;5.93;4.10;;;6.70;1.00;;;;;;5071368;28;20256;-82
2024/01/31 11:23:05;;;;;;;4.63;3.87;;;6.60;30.90;;;;;;5074209;28;20272;-83
2024/01/31 11:25:37;;;;;;;5.17;3.93;;;6.60;1.00;;;;;;5075322;28;20655;-82
2024/01/31 11:28:06;;;;;;;7.00;4.43;;;6.70;1.00;;;;;;5074282;28;20675;-82
2024/01/31 11:30:32;;;;;;;6.13;4.50;;;6.60;99.90;;;;;;5075001;28;20181;-82
2024/01/31 11:33:01;;;;;;;5.67;4.50;;;6.60;99.90;;;;;;5075509;28;20204;-82
2024/01/31 11:35:28;;;;;;;4.20;3.80;;;6.60;99.90;;;;;;5074088;28;20226;-82
2024/01/31 11:37:55;;;;;;;4.23;3.33;;;6.60;99.90;;;;;;5074161;28;20722;-83
2024/01/31 11:40:21;;;;;;;2.30;2.10;;;6.70;1.00;;;;;;5074849;28;20218;-82
2024/01/31 11:42:47;;;;;;;2.90;2.40;;;6.60;99.90;;;;;;5075273;28;20226;-82
2024/01/31 11:45:14;;;;;;;3.97;2.50;;;6.60;1.00;;;;;;5074178;28;20173;-83
2024/01/31 11:47:40;;;;;;;3.13;2.73;;;6.60;1.00;;;;;;5075074;28;20215;-82
2024/01/31 11:50:07;;;;;;;3.20;2.70;;;6.50;68.50;;;;;;5073617;28;20177;-83
2024/01/31 11:52:33;;;;;;;3.53;2.60;;;6.50;1.00;;;;;;5073320;28;20220;-82
2024/01/31 11:54:59;;;;;;;2.70;2.40;;;6.50;1.00;;;;;;5064953;28;20211;-82
2024/01/31 11:57:26;;;;;;;4.37;2.87;;;6.50;99.90;;;;;;5064031;28;20177;-83
2024/01/31 11:59:52;;;;;;;4.70;3.40;;;6.60;99.90;;;;;;5075362;28;20196;-82
2024/01/31 12:02:18;;;;;;;4.50;3.13;;;6.50;99.90;;;;;;5075632;28;20222;-84
2024/01/31 12:04:56;;;;;;;3.53;2.80;;;6.60;99.90;;;;;;5075403;28;20250;-83
2024/01/31 12:07:22;;;;;;;4.10;2.80;;;6.60;1.00;;;;;;5075350;28;20189;-84
2024/01/31 12:09:48;;;;;;;3.70;2.83;;;6.60;99.90;;;;;;5074860;28;20208;-84
2024/01/31 12:12:14;;;;;;;4.47;2.90;;;6.50;99.90;;;;;;5073398;28;20194;-85
2024/01/31 12:14:40;;;;;;;3.60;2.60;;;6.60;1.00;;;;;;5073677;28;20175;-82
2024/01/31 12:17:21;;;;;;;3.50;2.90;;;6.50;1.00;;;;;;5069107;28;20181;-83
2024/01/31 12:19:47;;;;;;;4.27;2.93;;;6.50;1.00;;;;;;5064837;28;20207;-84
2024/01/31 12:22:13;;;;;;;4.23;2.83;;;6.50;99.90;;;;;;5074480;28;20193;-83
2024/01/31 12:24:39;;;;;;;2.63;2.33;;;6.50;1.00;;;;;;5073936;28;20184;-87
2024/01/31 12:27:04;;;;;;;3.50;2.80;;;6.70;1.00;;;;;;5073643;28;20619;-84
2024/01/31 12:29:31;;;;;;;2.80;2.47;;;7.80;99.90;;;;;;5073405;28;20207;-84
2024/01/31 12:31:57;;;;;;;2.87;2.50;;;9.20;1.00;;;;;;5073078;28;20200;-84
2024/01/31 12:34:22;;;;;;;2.80;2.30;;;9.30;99.90;;;;;;5074335;28;20177;-82
2024/01/31 12:36:48;;;;;;;3.53;2.30;;;8.80;99.90;;;;;;5073408;28;20231;-83
2024/01/31 12:39:19;;;;;;;1.93;1.70;;;8.20;99.90;;;;;;5073487;28;20184;-82
2024/01/31 12:41:47;;;;;;;2.80;2.33;;;7.40;99.90;;;;;;5074078;28;20222;-83
2024/01/31 12:44:13;;;;;;;6.97;6.27;;;7.00;99.90;;;;;;5074455;28;20175;-83
2024/01/31 12:46:42;;;;;;;3.47;3.17;;;7.00;1.00;;;;;;5073084;28;20228;-82
2024/01/31 12:49:08;;;;;;;3.00;2.70;;;6.90;99.90;;;;;;5073407;28;20208;-82
2024/01/31 12:51:34;;;;;;;3.90;2.80;;;6.80;99.90;;;;;;5072401;28;20174;-82